Řízení letového provozu České republiky
Letiste: LKNA Aktualizace: 18.08.2018 11:01:06  UTC
 METAR LKNA 18.08. 11:00 ...
METAR LKNA 181100Z VRB03KT CAVOK 28/09 Q1020 NOSIG RMK BLU BLU=
 TAF LKNA 18.08. 05:00 ...
TAF LKNA 180500Z 1806/1906 33008KT CAVOK      BECMG 1813/1815 12008KT      BECMG 1817/1819 VRB02KT=